Time;durP1;ratioP1;P1;durP2;ratioP2;P2;SDS_P1;SDS_P2;PMS_P1;PMS_P2;Temp;Humidity;BMP_temperature;BMP_pressure;BME280_temperature;BME280_humidity;BME280_pressure;Samples;Min_cycle;Max_cycle;Signal;HPM_P1;HPM_P2
2024/03/17 00:01:36;;;;;;;;;;;;;;;16.11;48.68;101303.44;5091251;28;1114;-59
2024/03/17 00:04:02;;;;;;;;;;;;;;;17.64;47.38;101308.50;5083143;28;1274;-59
2024/03/17 00:06:27;;;;;;;;;;;;;;;16.75;48.83;101311.75;5097225;28;1003;-59
2024/03/17 00:08:54;;;;;;;;;;;;;;;16.29;48.71;101307.75;5083247;28;1910;-59
2024/03/17 00:11:20;;;;;;;;;;;;;;;16.02;48.09;101303.88;5083280;28;2401;-59
2024/03/17 00:13:45;;;;;;;;;;;;;;;17.15;48.30;101304.09;5097558;28;1228;-62
2024/03/17 00:16:13;;;;;;;;;;;;;;;16.85;48.68;101300.00;5083609;28;1046;-62
2024/03/17 00:18:38;;;;;;;;;;;;;;;16.25;48.52;101296.44;5065662;28;1007;-62
2024/03/17 00:21:04;;;;;;;;;;;;;;;16.10;47.91;101299.03;5090485;28;896;-62
2024/03/17 00:23:29;;;;;;;;;;;;;;;15.90;47.13;101294.97;5090696;28;1078;-62
2024/03/17 00:25:55;;;;;;;;;;;;;;;15.81;46.59;101299.22;5090290;28;1111;-61
2024/03/17 00:28:21;;;;;;;;;;;;;;;15.64;46.31;101297.38;5097046;28;1971;-61
2024/03/17 00:30:46;;;;;;;;;;;;;;;16.76;47.96;101294.19;5096933;28;1071;-62
2024/03/17 00:33:12;;;;;;;;;;;;;;;16.42;48.98;101296.34;5089245;28;1181;-61
2024/03/17 00:35:37;;;;;;;;;;;;;;;15.89;48.78;101290.56;5097233;28;1086;-62
2024/03/17 00:38:10;;;;;;;;;;;;;;;16.55;48.90;101292.31;5097012;28;1115;-61
2024/03/17 00:40:36;;;;;;;;;;;;;;;16.37;49.01;101293.56;5097154;28;2613;-61
2024/03/17 00:43:02;;;;;;;;;;;;;;;16.02;48.39;101298.41;5089562;28;1114;-62
2024/03/17 00:45:28;;;;;;;;;;;;;;;17.19;48.12;101293.41;5090899;28;916;-61
2024/03/17 00:47:53;;;;;;;;;;;;;;;16.73;48.86;101291.13;5083630;28;1909;-62
2024/03/17 00:50:19;;;;;;;;;;;;;;;16.17;48.38;101288.66;5065500;28;1039;-62
2024/03/17 00:52:45;;;;;;;;;;;;;;;15.91;47.85;101291.16;5096695;28;1026;-62
2024/03/17 00:55:11;;;;;;;;;;;;;;;16.90;48.38;101296.50;5082651;28;1174;-62
2024/03/17 00:57:37;;;;;;;;;;;;;;;16.07;48.88;101295.72;5092017;28;917;-60
2024/03/17 01:00:03;;;;;;;;;;;;;;;17.36;47.87;101295.97;5083094;28;1135;-61
2024/03/17 01:02:29;;;;;;;;;;;;;;;16.88;48.69;101293.16;5096440;28;1050;-61
2024/03/17 01:04:55;;;;;;;;;;;;;;;16.31;48.58;101294.56;5095824;28;1118;-61
2024/03/17 01:07:20;;;;;;;;;;;;;;;17.29;48.17;101290.72;5096873;28;1909;-61
2024/03/17 01:09:49;;;;;;;;;;;;;;;16.63;48.71;101296.53;5092923;28;2414;-61
2024/03/17 01:12:15;;;;;;;;;;;;;;;16.18;48.39;101282.09;5083960;28;1051;-61
2024/03/17 01:14:40;;;;;;;;;;;;;;;15.99;47.76;101287.94;5083329;28;1213;-61
2024/03/17 01:17:06;;;;;;;;;;;;;;;16.12;47.57;101281.22;5088698;28;1143;-61
2024/03/17 01:19:31;;;;;;;;;;;;;;;17.00;48.20;101280.09;5076791;28;1160;-61
2024/03/17 01:21:57;;;;;;;;;;;;;;;16.21;48.97;101279.66;5086314;28;910;-61
2024/03/17 01:24:24;;;;;;;;;;;;;;;15.91;48.12;101275.50;5081826;28;987;-61
2024/03/17 01:26:50;;;;;;;;;;;;;;;15.85;47.03;101276.53;5076307;28;1123;-61
2024/03/17 01:29:15;;;;;;;;;;;;;;;15.67;46.77;101280.41;5090158;28;1981;-61
2024/03/17 01:31:41;;;;;;;;;;;;;;;16.46;47.83;101271.94;5096050;28;1090;-62
2024/03/17 01:34:06;;;;;;;;;;;;;;;16.25;48.52;101280.78;5091375;28;916;-61
2024/03/17 01:36:32;;;;;;;;;;;;;;;17.71;47.25;101276.09;5076339;28;1263;-62
2024/03/17 01:38:58;;;;;;;;;;;;;;;17.26;48.28;101283.00;5089191;28;1113;-61
2024/03/17 01:41:23;;;;;;;;;;;;;;;16.51;48.65;101275.56;5075574;28;2894;-61
2024/03/17 01:43:49;;;;;;;;;;;;;;;16.13;48.03;101282.03;5089332;28;1209;-61
2024/03/17 01:46:15;;;;;;;;;;;;;;;15.91;47.58;101271.94;5086232;28;874;-61
2024/03/17 01:48:41;;;;;;;;;;;;;;;15.76;47.69;101261.59;5089044;28;1913;-62
2024/03/17 01:51:06;;;;;;;;;;;;;;;17.04;48.43;101269.41;5065290;28;1099;-62
2024/03/17 01:53:32;;;;;;;;;;;;;;;16.04;49.10;101268.78;5095614;28;995;-62
2024/03/17 01:55:58;;;;;;;;;;;;;;;15.90;47.85;101259.31;5083106;28;1063;-61
2024/03/17 01:58:24;;;;;;;;;;;;;;;15.79;46.93;101260.25;5073154;28;934;-62
2024/03/17 02:00:51;;;;;;;;;;;;;;;15.72;47.13;101265.91;5078400;28;1051;-62
2024/03/17 02:03:17;;;;;;;;;;;;;;;17.26;47.96;101261.88;5095608;28;1097;-60
2024/03/17 02:05:43;;;;;;;;;;;;;;;16.71;48.78;101263.91;5095513;28;1226;-60
2024/03/17 02:08:09;;;;;;;;;;;;;;;16.13;48.35;101258.19;5096261;28;1918;-61
2024/03/17 02:10:34;;;;;;;;;;;;;;;15.96;47.58;101261.00;5062060;28;2476;-61
2024/03/17 02:13:00;;;;;;;;;;;;;;;16.27;48.11;101266.00;5093052;28;1110;-61
2024/03/17 02:15:26;;;;;;;;;;;;;;;16.94;48.40;101259.16;5086673;28;1047;-61
2024/03/17 02:17:51;;;;;;;;;;;;;;;16.38;49.28;101254.03;5086453;28;1067;-61
2024/03/17 02:20:17;;;;;;;;;;;;;;;17.92;46.89;101257.75;5086246;28;1125;-61
2024/03/17 02:22:43;;;;;;;;;;;;;;;16.95;48.53;101258.09;5079485;28;938;-60
2024/03/17 02:25:09;;;;;;;;;;;;;;;16.49;48.08;101257.69;5079754;28;1178;-60
2024/03/17 02:27:37;;;;;;;;;;;;;;;16.21;47.73;101256.88;5093348;28;1901;-60
2024/03/17 02:30:04;;;;;;;;;;;;;;;15.94;47.20;101262.38;5091862;28;1224;-61
2024/03/17 02:32:30;;;;;;;;;;;;;;;16.00;47.21;101259.41;5093254;28;1114;-60
2024/03/17 02:34:56;;;;;;;;;;;;;;;17.07;48.22;101264.22;5079333;28;1035;-60
2024/03/17 02:37:22;;;;;;;;;;;;;;;16.18;48.77;101257.41;5093161;28;1055;-60
2024/03/17 02:39:47;;;;;;;;;;;;;;;15.90;47.89;101257.38;5081373;28;2452;-60
2024/03/17 02:42:13;;;;;;;;;;;;;;;16.33;48.18;101263.06;5093137;28;1055;-60
2024/03/17 02:44:40;;;;;;;;;;;;;;;17.06;48.00;101256.25;5097948;28;1097;-60
2024/03/17 02:47:09;;;;;;;;;;;;;;;16.21;48.71;101257.69;5080082;28;1046;-60
2024/03/17 02:49:39;;;;;;;;;;;;;;;15.97;47.70;101248.16;5099382;28;1074;-60
2024/03/17 02:52:11;;;;;;;;;;;;;;;15.77;47.31;101245.94;5098861;28;1019;-60
2024/03/17 02:54:37;;;;;;;;;;;;;;;16.02;47.88;101234.47;5099272;28;1079;-61
2024/03/17 02:57:03;;;;;;;;;;;;;;;16.95;48.14;101243.53;5083521;28;1121;-60
2024/03/17 02:59:28;;;;;;;;;;;;;;;16.42;49.27;101245.03;5078803;28;1056;-60
2024/03/17 03:01:54;;;;;;;;;;;;;;;17.93;46.67;101242.88;5091811;28;1167;-60
2024/03/17 03:04:20;;;;;;;;;;;;;;;17.06;48.54;101239.75;5088303;28;1105;-60
2024/03/17 03:06:46;;;;;;;;;;;;;;;16.47;48.62;101236.00;5078252;28;1093;-60
2024/03/17 03:09:15;;;;;;;;;;;;;;;16.15;48.13;101239.53;5082159;28;1914;-60
2024/03/17 03:11:41;;;;;;;;;;;;;;;16.00;47.24;101239.41;5085068;28;2518;-60
2024/03/17 03:14:07;;;;;;;;;;;;;;;15.88;46.74;101248.59;5098332;28;1026;-60
2024/03/17 03:16:33;;;;;;;;;;;;;;;17.00;48.09;101243.53;5095265;28;1053;-60
2024/03/17 03:18:58;;;;;;;;;;;;;;;16.54;49.00;101246.78;5078173;28;1160;-60
2024/03/17 03:21:24;;;;;;;;;;;;;;;16.05;48.39;101243.03;5092842;28;1139;-61
2024/03/17 03:23:50;;;;;;;;;;;;;;;15.90;47.83;101243.66;5088202;28;2382;-61
2024/03/17 03:26:15;;;;;;;;;;;;;;;15.81;47.00;101258.09;5097539;28;1198;-61
2024/03/17 03:28:41;;;;;;;;;;;;;;;17.22;47.89;101259.91;5098249;28;1909;-61
2024/03/17 03:31:10;;;;;;;;;;;;;;;16.61;48.59;101255.59;5082020;28;1388;-61
2024/03/17 03:33:35;;;;;;;;;;;;;;;16.08;48.44;101253.47;5081843;28;1055;-60
2024/03/17 03:36:06;;;;;;;;;;;;;;;16.31;48.55;101254.22;5091794;28;1190;-61
2024/03/17 03:38:33;;;;;;;;;;;;;;;17.19;47.92;101260.44;5077917;28;1063;-61
2024/03/17 03:40:58;;;;;;;;;;;;;;;16.25;48.78;101261.59;5091544;28;1086;-61
2024/03/17 03:43:26;;;;;;;;;;;;;;;16.00;47.79;101261.34;5078070;28;1126;-61
2024/03/17 03:45:52;;;;;;;;;;;;;;;16.49;48.72;101257.69;5091685;28;1083;-61
2024/03/17 03:48:18;;;;;;;;;;;;;;;16.02;48.46;101270.13;5097548;28;1980;-61
2024/03/17 03:50:43;;;;;;;;;;;;;;;16.30;48.50;101274.56;5094805;28;1022;-60
2024/03/17 03:53:09;;;;;;;;;;;;;;;17.13;47.56;101272.50;5088085;28;1221;-61
2024/03/17 03:55:34;;;;;;;;;;;;;;;16.23;48.49;101271.19;5097932;28;1082;-61
2024/03/17 03:58:00;;;;;;;;;;;;;;;15.95;47.93;101274.97;5095267;28;1229;-60
2024/03/17 04:00:29;;;;;;;;;;;;;;;16.80;48.05;101272.50;5094060;28;1156;-61
2024/03/17 04:02:55;;;;;;;;;;;;;;;16.30;48.76;101269.06;5088460;28;1130;-61
2024/03/17 04:05:20;;;;;;;;;;;;;;;15.97;47.91;101273.66;5096445;28;1037;-61
2024/03/17 04:07:47;;;;;;;;;;;;;;;15.77;47.17;101273.38;5086849;28;1906;-61
2024/03/17 04:10:13;;;;;;;;;;;;;;;15.79;47.08;101274.81;5090454;28;1068;-60
2024/03/17 04:12:39;;;;;;;;;;;;;;;16.73;47.94;101280.97;5097048;28;1125;-60
2024/03/17 04:15:06;;;;;;;;;;;;;;;15.96;48.23;101276.66;5097171;28;1093;-60
2024/03/17 04:17:32;;;;;;;;;;;;;;;15.71;47.70;101283.44;5097187;28;994;-63
2024/03/17 04:19:57;;;;;;;;;;;;;;;17.24;47.40;101279.72;5070697;28;1050;-61
2024/03/17 04:22:23;;;;;;;;;;;;;;;16.19;48.70;101275.53;5087867;28;1075;-60
2024/03/17 04:24:53;;;;;;;;;;;;;;;15.87;47.96;101279.03;5092422;28;1166;-60
2024/03/17 04:27:25;;;;;;;;;;;;;;;17.00;47.65;101290.25;5097176;28;1976;-59
2024/03/17 04:29:54;;;;;;;;;;;;;;;16.46;48.23;101291.16;5083952;28;1170;-60
2024/03/17 04:32:20;;;;;;;;;;;;;;;15.96;47.87;101296.66;5073771;28;2312;-61
2024/03/17 04:34:46;;;;;;;;;;;;;;;16.16;47.89;101295.25;5083861;28;2123;-59
2024/03/17 04:37:12;;;;;;;;;;;;;;;17.23;47.14;101302.78;5082928;28;2056;-60
2024/03/17 04:39:38;;;;;;;;;;;;;;;16.23;48.33;101304.13;5080699;28;2237;-58
2024/03/17 04:42:06;;;;;;;;;;;;;;;15.95;47.67;101300.53;5083955;28;1882;-59
2024/03/17 04:44:31;;;;;;;;;;;;;;;15.80;47.10;101311.31;5077026;28;2263;-59
2024/03/17 04:46:57;;;;;;;;;;;;;;;16.08;47.59;101304.78;5088097;28;1923;-57
2024/03/17 04:49:22;;;;;;;;;;;;;;;16.78;47.96;101307.66;5087851;28;1902;-60
2024/03/17 04:51:48;;;;;;;;;;;;;;;15.95;48.74;101308.75;5095247;28;1024;-64
2024/03/17 04:54:13;;;;;;;;;;;;;;;15.69;47.81;101311.13;5093127;28;1251;-64
2024/03/17 04:56:39;;;;;;;;;;;;;;;16.87;48.08;101307.97;5081909;28;1120;-61
2024/03/17 04:59:05;;;;;;;;;;;;;;;16.54;48.05;101309.91;5071089;28;1126;-60
2024/03/17 05:01:39;;;;;;;;;;;;;;;16.72;48.28;101312.25;5068725;28;1293;-62
2024/03/17 05:04:05;;;;;;;;;;;;;;;17.71;46.25;101314.59;5069876;28;1147;-62
2024/03/17 05:06:31;;;;;;;;;;;;;;;16.49;48.33;101312.59;5076810;28;1106;-66
2024/03/17 05:08:56;;;;;;;;;;;;;;;16.05;48.01;101316.25;5076073;28;1909;-68
2024/03/17 05:11:23;;;;;;;;;;;;;;;17.18;46.54;101321.97;5065520;28;1561;-65
2024/03/17 05:15:46;;;;;;;;;;;;;;;16.18;48.57;101324.06;5082298;27;327835;-65
2024/03/17 05:18:12;;;;;;;;;;;;;;;15.91;49.34;101327.63;5114338;28;1007;-67
2024/03/17 05:20:37;;;;;;;;;;;;;;;15.70;49.79;101325.69;5099734;28;1147;-67
2024/03/17 05:23:03;;;;;;;;;;;;;;;15.55;50.06;101331.78;5102291;28;895;-67
2024/03/17 05:25:29;;;;;;;;;;;;;;;15.39;50.50;101336.22;5105675;28;1079;-63
2024/03/17 05:27:55;;;;;;;;;;;;;;;15.23;50.95;101335.16;5113374;28;1046;-64
2024/03/17 05:30:20;;;;;;;;;;;;;;;15.16;51.13;101334.50;5113506;28;1039;-63
2024/03/17 05:32:46;;;;;;;;;;;;;;;16.76;47.08;101335.38;5099866;28;1150;-64
2024/03/17 05:35:12;;;;;;;;;;;;;;;17.41;45.37;101334.50;5112139;28;1898;-64
2024/03/17 05:37:38;;;;;;;;;;;;;;;16.24;48.37;101330.44;5099737;28;1200;-59
2024/03/17 05:40:03;;;;;;;;;;;;;;;15.79;49.37;101331.53;5113330;28;1121;-60
2024/03/17 05:42:29;;;;;;;;;;;;;;;15.51;50.25;101341.59;5113173;28;1034;-59
2024/03/17 05:44:55;;;;;;;;;;;;;;;15.32;50.58;101341.88;5113581;28;1102;-59
2024/03/17 05:47:20;;;;;;;;;;;;;;;15.98;49.01;101343.06;5100889;28;2871;-57
2024/03/17 05:49:46;;;;;;;;;;;;;;;17.33;45.84;101341.31;5093193;28;1000;-58
2024/03/17 05:52:12;;;;;;;;;;;;;;;16.50;47.69;101347.22;5109818;28;1159;-61
2024/03/17 05:54:37;;;;;;;;;;;;;;;15.86;49.31;101344.00;5103032;28;1983;-58
2024/03/17 05:57:04;;;;;;;;;;;;;;;15.49;50.03;101354.72;5096130;28;1028;-58
2024/03/17 05:59:31;;;;;;;;;;;;;;;15.35;50.34;101355.06;5100823;28;1118;-57
2024/03/17 06:01:56;;;;;;;;;;;;;;;16.90;46.69;101352.28;5106334;28;1051;-59
2024/03/17 06:04:22;;;;;;;;;;;;;;;17.12;46.01;101347.78;5103046;28;1106;-61
2024/03/17 06:06:48;;;;;;;;;;;;;;;16.10;48.59;101359.38;5112546;28;1054;-61
2024/03/17 06:09:17;;;;;;;;;;;;;;;15.77;49.17;101366.59;5113011;28;1026;-62
2024/03/17 06:11:43;;;;;;;;;;;;;;;15.44;50.31;101368.34;5104161;28;1094;-62
2024/03/17 06:14:11;;;;;;;;;;;;;;;15.89;49.35;101362.72;5092547;28;1890;-57
2024/03/17 06:16:37;;;;;;;;;;;;;;;17.34;45.76;101362.22;5103397;28;2499;-63
2024/03/17 06:19:03;;;;;;;;;;;;;;;16.91;46.26;101361.34;5112875;28;1051;-61
2024/03/17 06:21:28;;;;;;;;;;;;;;;16.14;48.37;101366.84;5107808;28;1078;-63
2024/03/17 06:23:54;;;;;;;;;;;;;;;15.75;49.31;101369.59;5107147;28;861;-62
2024/03/17 06:26:20;;;;;;;;;;;;;;;15.53;49.79;101367.66;5099047;28;1022;-62
2024/03/17 06:28:46;;;;;;;;;;;;;;;15.38;50.44;101370.19;5098652;28;1043;-61
2024/03/17 06:31:12;;;;;;;;;;;;;;;16.66;47.20;101370.13;5085394;28;1182;-62
2024/03/17 06:33:37;;;;;;;;;;;;;;;17.70;44.84;101372.63;5088224;28;1902;-60
2024/03/17 06:36:06;;;;;;;;;;;;;;;16.62;47.01;101361.63;5080513;28;1079;-61
2024/03/17 06:38:32;;;;;;;;;;;;;;;16.05;48.60;101369.19;5089512;28;1174;-61
2024/03/17 06:40:57;;;;;;;;;;;;;;;15.71;49.66;101374.78;5080680;28;1202;-60
2024/03/17 06:43:23;;;;;;;;;;;;;;;15.50;49.95;101370.06;5089615;28;1016;-61
2024/03/17 06:45:58;;;;;;;;;;;;;;;15.29;50.63;101372.53;5085404;28;2589;-61
2024/03/17 06:48:24;;;;;;;;;;;;;;;16.45;47.81;101371.84;5093406;28;913;-64
2024/03/17 06:50:54;;;;;;;;;;;;;;;17.49;45.25;101366.16;5085183;28;1162;-66
2024/03/17 06:53:20;;;;;;;;;;;;;;;16.31;48.00;101366.75;5098385;28;1082;-62
2024/03/17 06:56:12;;;;;;;;;;;;;;;15.86;49.30;101381.56;5085372;28;1913;-63
2024/03/17 06:58:37;;;;;;;;;;;;;;;15.60;49.91;101372.97;5091521;28;1203;-61
2024/03/17 07:01:03;;;;;;;;;;;;;;;15.53;49.97;101383.28;5087524;28;1060;-63
2024/03/17 07:03:29;;;;;;;;;;;;;;;16.92;46.92;101377.56;5082132;28;1138;-63
2024/03/17 07:05:55;;;;;;;;;;;;;;;17.19;45.90;101370.34;5087623;28;1190;-63
2024/03/17 07:08:21;;;;;;;;;;;;;;;16.25;48.34;101374.09;5085121;28;1123;-63
2024/03/17 07:11:00;;;;;;;;;;;;;;;15.95;49.17;101371.84;5078010;28;1034;-63
2024/03/17 07:13:25;;;;;;;;;;;;;;;15.64;49.83;101385.09;5095890;28;1897;-66
2024/03/17 07:15:51;;;;;;;;;;;;;;;15.48;50.21;101374.97;5097732;28;2553;-63
2024/03/17 07:18:17;;;;;;;;;;;;;;;16.87;47.00;101380.25;5085085;28;1031;-65
2024/03/17 07:20:42;;;;;;;;;;;;;;;17.61;45.16;101375.03;5098011;28;1101;-65
2024/03/17 07:23:08;;;;;;;;;;;;;;;16.48;47.72;101379.56;5093207;28;1073;-64
2024/03/17 07:25:33;;;;;;;;;;;;;;;16.04;49.01;101374.94;5084226;28;1043;-65
2024/03/17 07:27:59;;;;;;;;;;;;;;;15.77;49.76;101372.09;5097861;28;1109;-64
2024/03/17 07:30:24;;;;;;;;;;;;;;;15.61;49.84;101380.09;5097867;28;1022;-66
2024/03/17 07:32:50;;;;;;;;;;;;;;;16.95;46.73;101376.22;5084462;28;1119;-65
2024/03/17 07:35:16;;;;;;;;;;;;;;;17.77;44.87;101376.78;5093374;28;1991;-63
2024/03/17 07:37:41;;;;;;;;;;;;;;;16.64;47.46;101366.84;5090143;28;1150;-70
2024/03/17 07:40:10;;;;;;;;;;;;;;;16.21;48.59;101374.88;5088402;28;1059;-67
2024/03/17 07:42:36;;;;;;;;;;;;;;;15.90;49.35;101366.28;5097550;28;983;-72
2024/03/17 07:45:02;;;;;;;;;;;;;;;15.78;49.61;101373.75;5097798;28;1002;-69
2024/03/17 07:47:35;;;;;;;;;;;;;;;17.03;46.84;101366.69;5077613;28;2682;-71
2024/03/17 07:50:06;;;;;;;;;;;;;;;17.75;45.00;101361.63;5097429;28;1027;-70
2024/03/17 07:52:32;;;;;;;;;;;;;;;16.67;47.40;101363.56;5096523;28;1018;-65
2024/03/17 07:54:57;;;;;;;;;;;;;;;16.15;48.81;101354.78;5084638;28;2031;-63
2024/03/17 07:57:23;;;;;;;;;;;;;;;15.90;49.45;101355.31;5096501;28;1076;-67
2024/03/17 07:59:52;;;;;;;;;;;;;;;15.66;50.00;101361.00;5089547;28;1078;-66
2024/03/17 08:02:17;;;;;;;;;;;;;;;15.63;50.16;101350.53;5096294;28;1031;-67
2024/03/17 08:04:47;;;;;;;;;;;;;;;17.19;46.54;101343.69;5084126;28;1142;-71
2024/03/17 08:07:12;;;;;;;;;;;;;;;17.27;45.90;101345.13;5083597;28;1258;-71
2024/03/17 08:09:38;;;;;;;;;;;;;;;16.34;48.27;101347.03;5096872;28;1023;-71
2024/03/17 08:12:04;;;;;;;;;;;;;;;16.00;49.17;101344.44;5073598;28;876;-66
2024/03/17 08:14:32;;;;;;;;;;;;;;;15.83;49.95;101351.91;5096644;28;1972;-70
2024/03/17 08:16:58;;;;;;;;;;;;;;;15.64;50.52;101349.47;5078381;28;2639;-67
2024/03/17 08:19:23;;;;;;;;;;;;;;;15.59;50.54;101343.91;5096445;28;1066;-67
2024/03/17 08:21:49;;;;;;;;;;;;;;;16.57;48.16;101347.81;5084117;28;1171;-67
2024/03/17 08:24:14;;;;;;;;;;;;;;;17.66;45.32;101336.56;5087015;28;1062;-68
2024/03/17 08:26:40;;;;;;;;;;;;;;;16.61;47.58;101335.22;5092229;28;1110;-67
2024/03/17 08:29:06;;;;;;;;;;;;;;;16.11;49.24;101337.19;5084015;28;1138;-67
2024/03/17 08:31:32;;;;;;;;;;;;;;;15.87;49.81;101333.88;5072250;28;1143;-67
2024/03/17 08:33:57;;;;;;;;;;;;;;;15.64;50.37;101324.78;5089367;28;1909;-68
2024/03/17 08:36:24;;;;;;;;;;;;;;;15.90;50.10;101333.34;5092842;28;1073;-67
2024/03/17 08:38:50;;;;;;;;;;;;;;;17.35;46.36;101325.41;5096621;28;1026;-68
2024/03/17 08:41:15;;;;;;;;;;;;;;;17.19;46.54;101320.88;5089937;28;1177;-68
2024/03/17 08:43:42;;;;;;;;;;;;;;;16.38;48.66;101325.38;5089782;28;1213;-68
2024/03/17 08:46:08;;;;;;;;;;;;;;;16.02;49.62;101320.34;5095474;28;2658;-68
2024/03/17 08:48:35;;;;;;;;;;;;;;;15.77;50.09;101317.25;5085464;28;1002;-67
2024/03/17 08:51:01;;;;;;;;;;;;;;;15.59;50.56;101305.53;5089762;28;931;-68
2024/03/17 08:53:27;;;;;;;;;;;;;;;15.62;50.72;101315.16;5089348;28;1039;-69
2024/03/17 08:55:53;;;;;;;;;;;;;;;17.12;47.16;101307.38;5089292;28;1223;-70
2024/03/17 08:58:18;;;;;;;;;;;;;;;17.68;45.37;101312.38;5089166;28;1043;-67
2024/03/17 09:00:45;;;;;;;;;;;;;;;16.63;48.19;101313.81;5091854;28;1094;-69
2024/03/17 09:03:11;;;;;;;;;;;;;;;16.08;49.52;101310.25;5095964;28;1074;-68
2024/03/17 09:05:40;;;;;;;;;;;;;;;16.01;49.89;101302.22;5089582;28;992;-64
2024/03/17 09:08:08;;;;;;;;;;;;;;;15.78;50.65;101302.47;5089591;28;1147;-67
2024/03/17 09:10:40;;;;;;;;;;;;;;;15.62;50.82;101301.44;5083523;28;992;-67
2024/03/17 09:13:06;;;;;;;;;;;;;;;17.12;47.34;101298.31;5093965;28;1182;-67
2024/03/17 09:15:32;;;;;;;;;;;;;;;17.50;46.14;101294.44;5092544;28;2671;-68
2024/03/17 09:17:58;;;;;;;;;;;;;;;16.48;48.68;101294.47;5089319;28;995;-67
2024/03/17 09:20:24;;;;;;;;;;;;;;;16.16;49.46;101290.59;5083920;28;1040;-67
2024/03/17 09:22:49;;;;;;;;;;;;;;;15.94;50.26;101287.88;5096023;28;1026;-67
2024/03/17 09:25:15;;;;;;;;;;;;;;;15.79;50.36;101284.94;5085395;28;1508;-67
2024/03/17 09:27:41;;;;;;;;;;;;;;;15.57;50.93;101285.75;5082287;28;1106;-67
2024/03/17 09:30:09;;;;;;;;;;;;;;;16.12;49.98;101280.38;5096194;28;991;-67
2024/03/17 09:32:35;;;;;;;;;;;;;;;17.44;46.61;101279.81;5094923;28;1003;-67
2024/03/17 09:35:01;;;;;;;;;;;;;;;17.14;46.88;101280.47;5083470;28;1893;-67
2024/03/17 09:37:27;;;;;;;;;;;;;;;16.37;49.08;101272.41;5081814;28;1085;-68
2024/03/17 09:39:52;;;;;;;;;;;;;;;15.94;50.22;101276.91;5095589;28;1149;-67
2024/03/17 09:42:21;;;;;;;;;;;;;;;15.78;50.62;101267.66;5095381;28;1055;-67
2024/03/17 09:44:47;;;;;;;;;;;;;;;15.60;51.02;101274.28;5096061;28;1090;-66
2024/03/17 09:47:16;;;;;;;;;;;;;;;15.45;51.46;101269.44;5060948;28;2636;-67
2024/03/17 09:49:41;;;;;;;;;;;;;;;16.58;48.87;101261.63;5090963;28;1515;-67
2024/03/17 09:52:07;;;;;;;;;;;;;;;17.66;45.97;101262.31;5095450;28;1050;-67
2024/03/17 09:54:33;;;;;;;;;;;;;;;17.03;47.30;101257.59;5077534;28;1909;-64
2024/03/17 09:56:59;;;;;;;;;;;;;;;16.23;49.35;101257.47;5095636;28;1046;-61
2024/03/17 09:59:24;;;;;;;;;;;;;;;16.03;49.96;101258.91;5069329;28;1090;-65
2024/03/17 10:01:50;;;;;;;;;;;;;;;15.77;50.50;101256.91;5092490;28;833;-64
2024/03/17 10:04:30;;;;;;;;;;;;;;;15.74;50.57;101248.13;5099345;28;963;-63
2024/03/17 10:06:56;;;;;;;;;;;;;;;16.81;48.31;101248.63;5081104;28;995;-59
2024/03/17 10:09:22;;;;;;;;;;;;;;;17.84;45.77;101249.16;5089559;28;1294;-64
2024/03/17 10:11:47;;;;;;;;;;;;;;;16.81;47.84;101243.94;5096038;28;1103;-61
2024/03/17 10:14:15;;;;;;;;;;;;;;;16.30;49.14;101247.09;5090243;28;1886;-60
2024/03/17 10:16:41;;;;;;;;;;;;;;;16.02;50.06;101249.03;5072937;28;2399;-61
2024/03/17 10:19:10;;;;;;;;;;;;;;;15.88;50.60;101245.84;5088779;28;1130;-63
2024/03/17 10:21:36;;;;;;;;;;;;;;;15.68;50.91;101238.22;5092264;28;1323;-59
2024/03/17 10:24:06;;;;;;;;;;;;;;;16.09;50.04;101243.34;5090301;28;1107;-64
2024/03/17 10:26:31;;;;;;;;;;;;;;;17.53;46.36;101238.06;5087274;28;984;-65
2024/03/17 10:28:57;;;;;;;;;;;;;;;16.86;47.73;101235.75;5069204;28;991;-65
2024/03/17 10:31:22;;;;;;;;;;;;;;;16.33;49.31;101237.53;5079356;28;1039;-65
2024/03/17 10:34:00;;;;;;;;;;;;;;;16.01;50.18;101230.91;5098938;28;1983;-65
2024/03/17 10:36:26;;;;;;;;;;;;;;;15.83;50.54;101244.97;5082755;28;1091;-65
2024/03/17 10:38:53;;;;;;;;;;;;;;;15.64;51.24;101238.94;5091902;28;1127;-64
2024/03/17 10:41:20;;;;;;;;;;;;;;;16.05;50.20;101237.53;5071629;28;940;-64
2024/03/17 10:43:46;;;;;;;;;;;;;;;17.43;46.76;101239.69;5080441;28;1149;-63
2024/03/17 10:46:11;;;;;;;;;;;;;;;17.57;46.02;101233.66;5073184;28;2650;-63
2024/03/17 10:48:37;;;;;;;;;;;;;;;16.57;48.94;101229.75;5070135;28;1119;-64
2024/03/17 10:51:03;;;;;;;;;;;;;;;16.25;49.40;101231.41;5080150;28;1146;-62
2024/03/17 10:53:28;;;;;;;;;;;;;;;15.97;50.16;101229.75;5084886;28;1075;-65
2024/03/17 10:56:08;;;;;;;;;;;;;;;15.71;51.05;101228.63;5054115;28;1906;-66
2024/03/17 10:58:36;;;;;;;;;;;;;;;15.71;51.01;101228.63;5084995;28;1118;-64
2024/03/17 11:01:06;;;;;;;;;;;;;;;17.27;47.16;101230.50;5092593;28;1051;-64
2024/03/17 11:03:32;;;;;;;;;;;;;;;17.33;46.98;101214.06;5092056;28;1004;-64
2024/03/17 11:05:57;;;;;;;;;;;;;;;16.45;49.15;101221.69;5087550;28;1035;-62
2024/03/17 11:08:23;;;;;;;;;;;;;;;16.14;49.93;101215.13;5097758;28;1083;-64
2024/03/17 11:10:49;;;;;;;;;;;;;;;15.93;50.45;101216.84;5088766;28;1166;-62
2024/03/17 11:13:28;;;;;;;;;;;;;;;15.80;50.93;101207.09;5089835;28;1068;-64
2024/03/17 11:15:55;;;;;;;;;;;;;;;15.69;51.19;101212.41;5091906;28;2656;-63
2024/03/17 11:18:21;;;;;;;;;;;;;;;17.18;47.62;101195.56;5095942;28;1063;-63
2024/03/17 11:21:10;;;;;;;;;;;;;;;17.69;45.99;101204.00;5098016;28;1050;-63
2024/03/17 11:23:37;;;;;;;;;;;;;;;16.48;49.29;101192.91;5073806;28;1496;-63
2024/03/17 11:26:03;;;;;;;;;;;;;;;16.12;50.15;101187.09;5086111;28;1089;-63
2024/03/17 11:28:41;;;;;;;;;;;;;;;15.86;50.74;101189.59;5089622;28;1106;-63
2024/03/17 11:31:25;;;;;;;;;;;;;;;15.72;51.12;101187.25;5080715;28;1023;-63
2024/03/17 11:33:51;;;;;;;;;;;;;;;15.64;51.54;101189.59;5097339;28;1968;-63
2024/03/17 11:36:20;;;;;;;;;;;;;;;16.50;49.37;101182.50;5097585;28;1426;-63
2024/03/17 11:38:52;;;;;;;;;;;;;;;17.69;46.23;101182.00;5092834;28;856;-63
2024/03/17 11:41:33;;;;;;;;;;;;;;;16.93;47.84;101173.19;5071130;28;1021;-63
2024/03/17 11:44:18;;;;;;;;;;;;;;;16.31;49.53;101171.09;5081751;28;1123;-63
2024/03/17 11:47:04;;;;;;;;;;;;;;;15.90;50.50;101168.81;5089492;28;2843;-63
2024/03/17 11:49:30;;;;;;;;;;;;;;;15.71;51.17;101169.16;5066602;28;1362;-62
2024/03/17 11:51:56;;;;;;;;;;;;;;;15.56;51.69;101169.78;5092107;28;1075;-63
2024/03/17 11:54:29;;;;;;;;;;;;;;;16.43;49.52;101166.25;5089259;28;1883;-63
2024/03/17 11:57:05;;;;;;;;;;;;;;;17.71;46.47;101162.47;5090768;28;1047;-63
2024/03/17 11:59:31;;;;;;;;;;;;;;;17.10;47.64;101161.19;5087235;28;1104;-63
2024/03/17 12:01:56;;;;;;;;;;;;;;;16.40;49.35;101159.34;5090721;28;999;-63
2024/03/17 12:04:23;;;;;;;;;;;;;;;16.11;50.29;101152.53;5097200;28;1062;-63
2024/03/17 12:06:50;;;;;;;;;;;;;;;15.89;50.75;101148.78;5075238;28;1019;-64
2024/03/17 12:09:22;;;;;;;;;;;;;;;15.71;51.05;101155.44;5087725;28;1020;-64
2024/03/17 12:11:48;;;;;;;;;;;;;;;15.57;51.64;101146.78;5096862;28;1015;-62
2024/03/17 12:14:20;;;;;;;;;;;;;;;16.60;49.11;101150.44;5085153;28;1906;-59
2024/03/17 12:16:48;;;;;;;;;;;;;;;17.78;46.24;101146.53;5082837;28;2513;-56
2024/03/17 12:19:16;;;;;;;;;;;;;;;16.77;48.62;101150.28;5076406;28;1107;-56
2024/03/17 12:21:45;;;;;;;;;;;;;;;16.25;49.93;101140.03;5096018;28;1534;-56
2024/03/17 12:24:14;;;;;;;;;;;;;;;15.96;50.69;101151.31;5082907;28;1139;-56
2024/03/17 12:26:40;;;;;;;;;;;;;;;15.79;51.22;101145.09;5093873;28;1131;-56
2024/03/17 12:29:19;;;;;;;;;;;;;;;15.63;51.45;101138.63;5083762;28;1046;-57
2024/03/17 12:31:45;;;;;;;;;;;;;;;15.47;52.05;101132.13;5058768;28;1087;-57
2024/03/17 12:34:10;;;;;;;;;;;;;;;16.91;48.50;101133.34;5091069;28;1979;-57
2024/03/17 12:36:36;;;;;;;;;;;;;;;17.78;46.11;101136.38;5070710;28;1043;-58
2024/03/17 12:39:11;;;;;;;;;;;;;;;16.66;48.76;101126.59;5078221;28;915;-59
2024/03/17 12:41:37;;;;;;;;;;;;;;;16.18;49.95;101123.78;5087521;28;1039;-58
2024/03/17 12:44:03;;;;;;;;;;;;;;;15.90;50.77;101127.66;5058698;28;1007;-59
2024/03/17 12:46:28;;;;;;;;;;;;;;;15.72;51.25;101132.44;5067774;28;2812;-60
2024/03/17 12:49:03;;;;;;;;;;;;;;;16.18;50.68;101125.72;5096321;28;1057;-59